Fagernes Leirin, Norway

12:03 PM CEST on July 24, 2014 (GMT +0200)
Leirin (ENFG) Elev 2697 ft | 61.00 °N, 9.30 °E | Change Station

Current weather conditions updated 13 minutes ago

Partly Cloudy
Partly Cloudy
77 °F
Feels Like 77 °F
N
5
Wind Variable Wind from SSE

Today is forecast to be nearly the same temperature as yesterday. Slight chance of a thunderstorm tonight.

Today
High -- | Low -- °F
--% Chance of Precip.
Yesterday
High -- | Low -- °F
Precip. -- in
4:36 AM 10:20 PM
Waning Crescent, 6% visible
Pressure 30.33 in
Visibility 6.2 miles
Clouds Few 6000 ft
Dew Point 46 °F
Humidity 34%
Rainfall 0.00 in
Snow Depth Not available.
UV 6 out of 12
Pollen Not available.
Air Quality Not available.
Flu Activity Not available.
METAR ENFG 240950Z 15004KT 9999 FEW060TCU 25/08 Q1027

More Conditions Fewer Conditions

Pressure 30.33 in
Visibility 6.2 miles
Clouds Few 6000 ft
Dew Point 46 °F
Humidity 34%
Rainfall 0.00 in
Snow Depth Not available.
UV 6 out of 12
Pollen Not available.
Air Quality Not available.
Flu Activity Not available.
METAR ENFG 240950Z 15004KT 9999 FEW060TCU 25/08 Q1027

More Conditions Fewer Conditions

10-Day Weather Forecast

Almanac

Astronomy

Jul. 24, 2014 Rise Set
Actual Time 4:36 AM CEST 10:20 PM CEST
Civil Twilight 3:21 AM CEST 11:34 PM CEST
Nautical Twilight Sun does not rise Sun does not rise
Astronomical Twilight Sun does not rise Sun does not rise
Moon 2:39 AM CEST 8:11 PM CEST
Length of Visible Light 20h 12m
Length of Day
17h 44m
Tomorrow will be 4m 47s shorter.
Waning Crescent, 6% of the Moon is Illuminated
Today
Waning Crescent
Jul 26
New
Aug 3
First Quarter
Aug 10
Full
Aug 17
Last Quarter

Yesterday's Extremes

Country Highs Country Lows

Community

WunderPhotos

Upload Photos

1,736,963 photos uploaded!

Nearby

Snow Depth

Not available.

Earthquake Activity

City Distance Mag. Time & Date
No recent earthquake activity has been reported nearby.
Minimum magnitude displayed is 2.5.

Coastal Water Temperatures

Place Temperature
No Stations Reporting

Nearby Weather Stations

Station Location Temp. Heat Index Dew Point Humidity Wind Precip. Elev Updated Type
FOROHAUGEN, KVALE 77.5 °F 79 °F 62 °F 59% SW  at  0.9 mph 0.00 in / hr 1706 ft 12:03 PM CEST Rapid Fire
Beitostølen, Beitostølen 77.0 °F 79 °F 57 °F 50% West  at  0.0 mph - / hr 2850 ft 11:53 AM CEST Normal

Show More Stations Show Fewer Stations